createdAt,value
2022-11-16T00:00:20.960Z,21.5
2022-11-16T00:03:20.966Z,20.1
2022-11-16T00:06:21.004Z,23.3
2022-11-16T00:09:20.968Z,19.8
2022-11-16T00:12:20.969Z,21.9
2022-11-16T00:15:20.973Z,21.6
2022-11-16T00:18:20.974Z,19.1
2022-11-16T00:21:20.987Z,21.7
2022-11-16T00:24:21.003Z,20.6
2022-11-16T00:27:20.982Z,19.9
2022-11-16T00:30:20.980Z,22
2022-11-16T00:33:20.984Z,19.5
2022-11-16T00:36:21.000Z,19.2
2022-11-16T00:39:20.997Z,20
2022-11-16T00:42:21.014Z,18.3
2022-11-16T00:45:20.988Z,18.1
2022-11-16T00:48:20.998Z,18.8
2022-11-16T00:51:21.007Z,18.3
2022-11-16T00:54:20.998Z,18.4
2022-11-16T00:57:21.000Z,18.4
2022-11-16T01:00:21.025Z,18.7
2022-11-16T01:03:21.006Z,18.9
2022-11-16T01:06:21.020Z,18.6
2022-11-16T01:09:21.009Z,18.3
2022-11-16T01:12:21.012Z,19.3
2022-11-16T01:15:21.016Z,18.2
2022-11-16T01:18:21.052Z,21
2022-11-16T01:21:21.027Z,19.2
2022-11-16T01:24:21.026Z,17.4
2022-11-16T01:27:21.032Z,18.9
2022-11-16T01:30:21.024Z,21.7
2022-11-16T01:33:21.029Z,18.5
2022-11-16T01:36:21.061Z,18.5
2022-11-16T01:39:21.040Z,18.4
2022-11-16T01:42:21.042Z,19.1
2022-11-16T01:45:21.045Z,20.6
2022-11-16T01:48:21.081Z,21.4
2022-11-16T01:51:21.112Z,19.5
2022-11-16T01:54:21.073Z,21.7
2022-11-16T01:57:21.050Z,21
2022-11-16T02:00:21.054Z,22.3
2022-11-16T02:03:21.064Z,24.2
2022-11-16T02:06:21.061Z,23.6
2022-11-16T02:09:21.061Z,27.7
2022-11-16T02:12:21.095Z,26.3
2022-11-16T02:15:21.080Z,27.8
2022-11-16T02:18:21.081Z,27.9
2022-11-16T02:21:21.098Z,29.6
2022-11-16T02:24:21.073Z,29
2022-11-16T02:27:21.080Z,28.1
2022-11-16T02:30:21.129Z,29.7
2022-11-16T02:33:21.083Z,29.5
2022-11-16T02:36:21.080Z,31
2022-11-16T02:39:21.084Z,30.8
2022-11-16T02:42:21.089Z,34.3
2022-11-16T02:45:21.093Z,31.4
2022-11-16T02:48:21.126Z,31.8
2022-11-16T02:51:21.110Z,34.6
2022-11-16T02:54:21.109Z,37.5
2022-11-16T02:57:21.109Z,37.2
2022-11-16T03:00:21.112Z,35.9
2022-11-16T03:03:21.115Z,39.1
2022-11-16T03:06:21.162Z,39.6
2022-11-16T03:09:21.124Z,40.8
2022-11-16T03:12:21.129Z,41
2022-11-16T03:15:21.132Z,45.6
2022-11-16T03:18:21.136Z,43.1
2022-11-16T03:21:21.137Z,44.6
2022-11-16T03:24:21.160Z,43.8
2022-11-16T03:27:21.139Z,44.1
2022-11-16T03:30:23.708Z,45
2022-11-16T03:33:21.147Z,44.7
2022-11-16T03:36:21.155Z,44.9
2022-11-16T03:39:21.149Z,46.7
2022-11-16T03:42:21.182Z,43.2
2022-11-16T03:45:21.165Z,45.6
2022-11-16T03:48:21.171Z,44.9
2022-11-16T03:51:21.173Z,45.4
2022-11-16T03:54:21.177Z,44.5
2022-11-16T03:57:21.181Z,43.7
2022-11-16T04:00:21.207Z,44.7
2022-11-16T04:03:21.182Z,44.7
2022-11-16T04:06:21.188Z,45.2
2022-11-16T04:09:21.186Z,46.2
2022-11-16T04:12:21.190Z,44.1
2022-11-16T04:15:21.197Z,47
2022-11-16T04:18:21.227Z,46
2022-11-16T04:21:21.204Z,46.4
2022-11-16T04:24:21.203Z,47.8
2022-11-16T04:27:21.205Z,47.6
2022-11-16T04:30:21.212Z,45.7
2022-11-16T04:33:21.216Z,46.1
2022-11-16T04:36:21.273Z,45.4
2022-11-16T04:39:21.220Z,47
2022-11-16T04:42:21.216Z,45.4
2022-11-16T04:45:21.219Z,44.7
2022-11-16T04:48:21.223Z,45.4
2022-11-16T04:51:21.225Z,45.3
2022-11-16T04:54:21.266Z,44
2022-11-16T04:57:21.236Z,43.1
2022-11-16T05:00:21.249Z,43.8
2022-11-16T05:03:21.251Z,42.1
2022-11-16T05:06:21.251Z,41.5
2022-11-16T05:09:21.266Z,41.4
2022-11-16T05:12:21.281Z,40.6
2022-11-16T05:15:21.260Z,37.9
2022-11-16T05:18:21.269Z,38.3
2022-11-16T05:21:21.263Z,36.5
2022-11-16T05:24:21.269Z,37.7
2022-11-16T05:27:21.277Z,38.3
2022-11-16T05:30:21.299Z,36.1
2022-11-16T05:33:21.284Z,36
2022-11-16T05:36:21.283Z,36.6
2022-11-16T05:39:21.301Z,35
2022-11-16T05:42:21.302Z,36.1
2022-11-16T05:45:21.425Z,36.6
2022-11-16T05:48:21.332Z,39.1
2022-11-16T05:51:21.311Z,36.3
2022-11-16T05:54:21.314Z,36.1
2022-11-16T05:57:21.319Z,35.5
2022-11-16T06:00:21.325Z,36.1
2022-11-16T06:03:21.355Z,35.7
2022-11-16T06:06:21.373Z,34.7
2022-11-16T06:09:21.341Z,37
2022-11-16T06:12:21.343Z,37.3
2022-11-16T06:15:21.348Z,37.2
2022-11-16T06:18:21.653Z,36.6
2022-11-16T06:21:21.357Z,36.6
2022-11-16T06:24:21.359Z,36.5
2022-11-16T06:27:21.364Z,35.3
2022-11-16T06:30:21.363Z,36.1
2022-11-16T06:33:21.370Z,34.9
2022-11-16T06:36:21.497Z,35.4
2022-11-16T06:39:21.378Z,35.8
2022-11-16T06:42:21.389Z,36.7
2022-11-16T06:45:21.388Z,36.3
2022-11-16T06:48:21.399Z,37.8
2022-11-16T06:51:21.399Z,36.8
2022-11-16T06:54:21.445Z,37.2
2022-11-16T06:57:21.415Z,37.1
2022-11-16T07:00:21.422Z,37.5
2022-11-16T07:03:21.432Z,37.6
2022-11-16T07:06:21.438Z,36.8
2022-11-16T07:09:21.444Z,38.2
2022-11-16T07:12:21.471Z,36.4
2022-11-16T07:15:21.455Z,36.4
2022-11-16T07:18:21.457Z,36.6
2022-11-16T07:21:21.464Z,37.5
2022-11-16T07:24:21.470Z,37.1
2022-11-16T07:27:21.471Z,36.3
2022-11-16T07:30:21.501Z,36.5
2022-11-16T07:33:21.505Z,36.2
2022-11-16T07:36:21.494Z,34.6
2022-11-16T07:39:21.496Z,36.6
2022-11-16T07:42:21.502Z,36
2022-11-16T07:45:21.504Z,35.5
2022-11-16T07:48:21.729Z,36.9
2022-11-16T07:51:21.518Z,37.1
2022-11-16T07:54:21.526Z,36.5
2022-11-16T07:57:21.528Z,38.6
2022-11-16T08:00:21.538Z,39
2022-11-16T08:03:24.596Z,39.3
2022-11-16T08:06:21.567Z,39
2022-11-16T08:09:21.556Z,39.6
2022-11-16T08:12:21.569Z,40
2022-11-16T08:15:21.566Z,40.7
2022-11-16T08:18:21.572Z,39.2
2022-11-16T08:21:21.582Z,40.9
2022-11-16T08:24:21.714Z,40.8
2022-11-16T08:27:21.592Z,41.4
2022-11-16T08:30:21.603Z,40.3
2022-11-16T08:33:21.613Z,40.4
2022-11-16T08:36:21.623Z,44.7
2022-11-16T08:39:21.629Z,43.2
2022-11-16T08:42:21.657Z,44
2022-11-16T08:45:21.645Z,46.4
2022-11-16T08:48:21.644Z,46.9
2022-11-16T08:51:21.653Z,46.6
2022-11-16T08:54:21.662Z,44.3
2022-11-16T08:57:21.666Z,46.3
2022-11-16T09:00:21.788Z,45.6
2022-11-16T09:03:21.680Z,47.8
2022-11-16T09:06:21.688Z,46.6
2022-11-16T09:09:21.695Z,48.8
2022-11-16T09:12:21.694Z,54.7
2022-11-16T09:15:21.717Z,53.9
2022-11-16T09:18:21.824Z,54.4
2022-11-16T09:21:21.710Z,54.2
2022-11-16T09:24:21.719Z,53.2
2022-11-16T09:27:21.717Z,53.8
2022-11-16T09:30:21.723Z,55.3
2022-11-16T09:33:21.724Z,54.8
2022-11-16T09:36:21.786Z,52
2022-11-16T09:39:31.949Z,49.9
2022-11-16T09:42:21.741Z,49
2022-11-16T09:45:21.746Z,47.1
2022-11-16T09:48:21.747Z,47.3
2022-11-16T09:51:21.751Z,44.1
2022-11-16T09:54:21.785Z,40.8
2022-11-16T09:57:21.764Z,42.1
2022-11-16T10:00:21.864Z,39.7
2022-11-16T10:03:21.779Z,37.5
2022-11-16T10:06:21.783Z,37.1
2022-11-16T10:09:21.784Z,35.9
2022-11-16T10:12:21.913Z,35.8
2022-11-16T10:15:21.799Z,34.7
2022-11-16T10:18:21.828Z,36.7
2022-11-16T10:21:21.813Z,35
2022-11-16T10:24:21.814Z,35.9
2022-11-16T10:27:22.341Z,37.2
2022-11-16T10:30:21.873Z,34.9
2022-11-16T10:33:21.836Z,36.3
2022-11-16T10:36:21.846Z,37.3
2022-11-16T10:39:21.849Z,37.6
2022-11-16T10:42:21.854Z,37.5
2022-11-16T10:45:21.863Z,40.1
2022-11-16T10:48:21.983Z,38.2
2022-11-16T10:51:21.872Z,38.9
2022-11-16T10:54:21.881Z,39.5
2022-11-16T10:57:21.874Z,39.4
2022-11-16T11:00:22.358Z,40.6
2022-11-16T11:03:21.891Z,39.8
2022-11-16T11:06:22.024Z,40.4
2022-11-16T11:09:21.909Z,43.3
2022-11-16T11:12:21.911Z,49.1
2022-11-16T11:15:25.466Z,54.4
2022-11-16T11:18:21.921Z,55.3
2022-11-16T11:21:21.930Z,58.1
2022-11-16T11:24:44.704Z,62.6
2022-11-16T11:27:21.942Z,66.7
2022-11-16T11:30:21.952Z,69.5
2022-11-16T11:33:21.955Z,70.9
2022-11-16T11:36:21.960Z,71
2022-11-16T11:39:21.982Z,74.8
2022-11-16T11:42:22.092Z,74.9
2022-11-16T11:45:21.976Z,75
2022-11-16T11:48:21.983Z,79.2
2022-11-16T11:51:21.988Z,76.3
2022-11-16T11:54:21.997Z,74.7
2022-11-16T11:57:21.999Z,75.7
2022-11-16T12:00:22.083Z,72.6
2022-11-16T12:03:22.069Z,77.6
2022-11-16T12:06:22.025Z,82.4
2022-11-16T12:09:22.030Z,73.3
2022-11-16T12:12:22.036Z,73.3
2022-11-16T12:15:22.047Z,74.2
2022-11-16T12:18:22.088Z,79.2
2022-11-16T12:21:22.071Z,78.8
2022-11-16T12:24:22.080Z,81.2
2022-11-16T12:27:22.081Z,78.1
2022-11-16T12:30:22.088Z,81.1
2022-11-16T12:33:22.394Z,84.5
2022-11-16T12:36:22.126Z,81.7
2022-11-16T12:39:22.114Z,86.3
2022-11-16T12:42:22.113Z,88.6
2022-11-16T12:45:22.118Z,90
2022-11-16T12:48:22.132Z,89.5
2022-11-16T12:51:22.591Z,93.2
2022-11-16T12:54:22.216Z,91.7
2022-11-16T12:57:22.216Z,89.5
2022-11-16T13:00:22.157Z,89.9
2022-11-16T13:03:22.162Z,85
2022-11-16T13:06:22.167Z,86.4
2022-11-16T13:09:22.175Z,88.7
2022-11-16T13:12:22.374Z,88.6
2022-11-16T13:15:22.187Z,93.1
2022-11-16T13:18:22.200Z,91.1
2022-11-16T13:21:22.202Z,98
2022-11-16T13:24:22.207Z,88.7
2022-11-16T13:27:22.212Z,86.3
2022-11-16T13:30:22.255Z,84.5
2022-11-16T13:33:22.232Z,83.5
2022-11-16T13:36:22.236Z,84
2022-11-16T13:39:23.104Z,80.6
2022-11-16T13:42:22.244Z,74.3
2022-11-16T13:45:22.249Z,75.8
2022-11-16T13:48:22.379Z,69.6
2022-11-16T13:51:22.260Z,76.6
2022-11-16T13:54:45.970Z,75.4
2022-11-16T13:57:22.275Z,65
2022-11-16T14:00:22.284Z,69.9
2022-11-16T14:03:22.288Z,64.5
2022-11-16T14:06:22.415Z,66.2
2022-11-16T14:09:22.301Z,62.9
2022-11-16T14:12:22.310Z,68.2
2022-11-16T14:15:22.310Z,60.9
2022-11-16T14:18:22.323Z,66.6
2022-11-16T14:21:22.326Z,69.2
2022-11-16T14:24:22.463Z,68.8
2022-11-16T14:27:24.309Z,70.7
2022-11-16T14:30:22.344Z,69.4
2022-11-16T14:33:22.356Z,71.8
2022-11-16T14:36:22.363Z,73
2022-11-16T14:39:22.371Z,73.2
2022-11-16T14:42:22.516Z,72.9
2022-11-16T14:45:22.385Z,72.9
2022-11-16T14:48:22.399Z,67.9
2022-11-16T14:51:22.397Z,67.1
2022-11-16T14:54:22.413Z,64
2022-11-16T14:57:22.411Z,66.2
2022-11-16T15:00:22.542Z,62.4
2022-11-16T15:03:22.464Z,65.3
2022-11-16T15:06:22.430Z,64.3
2022-11-16T15:09:22.437Z,60.4
2022-11-16T15:12:22.443Z,62.1
2022-11-16T15:15:22.469Z,62.9
2022-11-16T15:18:22.673Z,62.4
2022-11-16T15:21:22.472Z,60.1
2022-11-16T15:24:30.330Z,61
2022-11-16T15:27:22.486Z,60
2022-11-16T15:30:22.497Z,63.2
2022-11-16T15:33:22.515Z,61.3
2022-11-16T15:36:22.538Z,61.2
2022-11-16T15:39:22.519Z,55.5
2022-11-16T15:42:22.529Z,63.5
2022-11-16T15:45:22.536Z,59.3
2022-11-16T15:48:22.549Z,55
2022-11-16T15:51:22.556Z,48.8
2022-11-16T15:54:22.688Z,51.2
2022-11-16T15:57:22.572Z,50.3
2022-11-16T16:00:22.575Z,47
2022-11-16T16:03:22.581Z,46.9
2022-11-16T16:06:22.594Z,50.2
2022-11-16T16:09:22.591Z,51.8
2022-11-16T16:12:22.646Z,52.2
2022-11-16T16:15:22.616Z,53.3
2022-11-16T16:18:22.624Z,53.6
2022-11-16T16:21:22.627Z,51.7
2022-11-16T16:24:22.636Z,50.6
2022-11-16T16:27:22.638Z,50.2
2022-11-16T16:30:22.676Z,50.7
2022-11-16T16:33:22.659Z,47.5
2022-11-16T16:36:22.657Z,50.2
2022-11-16T16:39:22.668Z,45.9
2022-11-16T16:42:22.676Z,40.9
2022-11-16T16:45:22.685Z,40.7
2022-11-16T16:48:22.803Z,40
2022-11-16T16:51:22.697Z,40.4
2022-11-16T16:54:22.705Z,40
2022-11-16T16:57:22.710Z,32.2
2022-11-16T17:00:22.714Z,30.3
2022-11-16T17:03:22.731Z,23.8
2022-11-16T17:06:22.755Z,23.6
2022-11-16T17:09:22.740Z,23.3
2022-11-16T17:12:22.742Z,22.7
2022-11-16T17:15:22.747Z,23.5
2022-11-16T17:18:22.760Z,23.3
2022-11-16T17:21:22.763Z,20.1
2022-11-16T17:24:22.789Z,20
2022-11-16T17:27:22.777Z,22
2022-11-16T17:30:22.784Z,20.4
2022-11-16T17:33:22.793Z,23.1
2022-11-16T17:36:22.799Z,22.3
2022-11-16T17:39:22.800Z,24.1
2022-11-16T17:42:22.930Z,23.1
2022-11-16T17:45:22.816Z,25.9
2022-11-16T17:48:22.820Z,24.2
2022-11-16T17:51:22.825Z,21.1
2022-11-16T17:54:22.840Z,20.8
2022-11-16T17:57:22.842Z,20
2022-11-16T18:00:22.961Z,21
2022-11-16T18:03:22.852Z,19.6
2022-11-16T18:06:22.863Z,21.7
2022-11-16T18:09:22.872Z,23.2
2022-11-16T18:12:22.873Z,22.3
2022-11-16T18:15:28.265Z,21.4
2022-11-16T18:18:23.021Z,22.3
2022-11-16T18:21:22.895Z,21.3
2022-11-16T18:24:22.899Z,21.8
2022-11-16T18:27:22.903Z,24.3
2022-11-16T18:30:22.915Z,22.1
2022-11-16T18:33:26.519Z,24.3
2022-11-16T18:36:23.061Z,23.3
2022-11-16T18:39:22.917Z,22
2022-11-16T18:42:22.920Z,21.7
2022-11-16T18:45:22.938Z,21.7
2022-11-16T18:48:22.940Z,19.9
2022-11-16T18:51:22.942Z,20.2
2022-11-16T18:54:23.065Z,21.4
2022-11-16T18:57:22.963Z,22.2
2022-11-16T19:00:22.954Z,18.9
2022-11-16T19:03:22.954Z,20
2022-11-16T19:06:22.965Z,17.9
2022-11-16T19:09:22.973Z,19.9
2022-11-16T19:12:23.094Z,17.9
2022-11-16T19:15:22.975Z,18.2
2022-11-16T19:18:23.008Z,16.9
2022-11-16T19:21:23.003Z,17.8
2022-11-16T19:24:22.978Z,15.8
2022-11-16T19:27:22.977Z,17.7
2022-11-16T19:30:23.006Z,16.3
2022-11-16T19:33:22.983Z,15.6
2022-11-16T19:36:22.985Z,17.3
2022-11-16T19:39:22.985Z,19.7
2022-11-16T19:42:22.986Z,17
2022-11-16T19:45:23.002Z,19.2
2022-11-16T19:48:23.021Z,20.1
2022-11-16T19:51:23.004Z,16.2
2022-11-16T19:54:23.023Z,16.1
2022-11-16T19:57:23.041Z,15.2
2022-11-16T20:00:23.049Z,15.5
2022-11-16T20:03:23.071Z,16.3
2022-11-16T20:06:23.111Z,16.8
2022-11-16T20:09:23.100Z,14.9
2022-11-16T20:12:23.115Z,16.3
2022-11-16T20:15:23.135Z,15.5
2022-11-16T20:18:23.150Z,14.4
2022-11-16T20:21:23.155Z,14.1
2022-11-16T20:24:23.293Z,15.1
2022-11-16T20:27:23.195Z,15.3
2022-11-16T20:30:23.208Z,16
2022-11-16T20:33:23.226Z,15.1
2022-11-16T20:36:23.240Z,16.9
2022-11-16T20:39:23.258Z,14.3
2022-11-16T20:42:23.290Z,14.1
2022-11-16T20:45:23.285Z,14.7
2022-11-16T20:48:23.305Z,15.2
2022-11-16T20:51:23.320Z,14
2022-11-16T20:54:23.332Z,15.5
2022-11-16T20:57:23.344Z,14.2
2022-11-16T21:00:23.482Z,13.5
2022-11-16T21:03:23.381Z,13.9
2022-11-16T21:06:23.404Z,13.4
2022-11-16T21:09:23.412Z,13.4
2022-11-16T21:12:23.432Z,12
2022-11-16T21:15:23.443Z,13.7
2022-11-16T21:18:27.926Z,12.9
2022-11-16T21:21:23.483Z,14.1
2022-11-16T21:24:23.508Z,14.2
2022-11-16T21:27:23.518Z,12
2022-11-16T21:30:23.535Z,13.1
2022-11-16T21:33:23.550Z,12.3
2022-11-16T21:36:23.680Z,12.8
2022-11-16T21:39:23.577Z,11.5
2022-11-16T21:42:23.604Z,10.9
2022-11-16T21:45:23.615Z,10.8
2022-11-16T21:48:23.631Z,11
2022-11-16T21:51:23.835Z,9.4
2022-11-16T21:54:23.791Z,9.5
2022-11-16T21:57:23.682Z,8.9
2022-11-16T22:00:23.699Z,8.5
2022-11-16T22:03:23.716Z,7.9
2022-11-16T22:06:23.741Z,8.6
2022-11-16T22:09:23.749Z,8.7
2022-11-16T22:12:23.887Z,8.1
2022-11-16T22:15:23.797Z,7.8
2022-11-16T22:18:23.812Z,7.9
2022-11-16T22:21:23.829Z,7.7
2022-11-16T22:24:23.846Z,7.1
2022-11-16T22:27:23.865Z,6.8
2022-11-16T22:30:24.006Z,6.5
2022-11-16T22:33:23.904Z,6.8
2022-11-16T22:36:23.929Z,6.1
2022-11-16T22:39:23.949Z,6.2
2022-11-16T22:42:23.997Z,6.5
2022-11-16T22:45:23.984Z,6.2
2022-11-16T22:48:24.025Z,6.1
2022-11-16T22:51:24.027Z,7.5
2022-11-16T22:54:28.418Z,6.8
2022-11-16T22:57:24.067Z,7.6
2022-11-16T23:00:24.079Z,7
2022-11-16T23:03:24.134Z,5.6
2022-11-16T23:06:24.141Z,5.8
2022-11-16T23:09:24.140Z,6
2022-11-16T23:12:24.165Z,6.1
2022-11-16T23:15:24.181Z,5.9
2022-11-16T23:18:24.213Z,6
2022-11-16T23:21:24.236Z,6.2
2022-11-16T23:24:24.359Z,6.5
2022-11-16T23:27:24.248Z,7.5
2022-11-16T23:30:24.243Z,6.5
2022-11-16T23:33:24.270Z,6.2
2022-11-16T23:36:24.241Z,7.1
2022-11-16T23:39:24.263Z,6.4
2022-11-16T23:42:24.297Z,7.7
2022-11-16T23:45:24.275Z,8.5
2022-11-16T23:48:24.269Z,9.1
2022-11-16T23:51:24.272Z,8.6
2022-11-16T23:54:24.269Z,8.2
2022-11-16T23:57:24.294Z,8.7
